sensor_id;sensor_type;location;lat;lon;timestamp;P1;durP1;ratioP1;P2;durP2;ratioP2
974;SDS011;6115;49.296;10.602;2024-01-30T00:04:01;73.70;;;15.37;;
974;SDS011;6115;49.296;10.602;2024-01-30T00:09:02;71.53;;;14.77;;
974;SDS011;6115;49.296;10.602;2024-01-30T00:14:03;71.50;;;15.60;;
974;SDS011;6115;49.296;10.602;2024-01-30T00:19:04;72.00;;;16.10;;
974;SDS011;6115;49.296;10.602;2024-01-30T00:24:05;74.10;;;16.00;;
974;SDS011;6115;49.296;10.602;2024-01-30T00:29:05;71.30;;;14.70;;
974;SDS011;6115;49.296;10.602;2024-01-30T00:34:06;72.80;;;16.20;;
974;SDS011;6115;49.296;10.602;2024-01-30T00:39:06;72.10;;;14.77;;
974;SDS011;6115;49.296;10.602;2024-01-30T00:44:09;71.80;;;15.87;;
974;SDS011;6115;49.296;10.602;2024-01-30T00:49:10;74.03;;;15.63;;
974;SDS011;6115;49.296;10.602;2024-01-30T00:54:10;70.57;;;14.20;;
974;SDS011;6115;49.296;10.602;2024-01-30T00:59:11;70.27;;;14.03;;
974;SDS011;6115;49.296;10.602;2024-01-30T01:04:12;72.90;;;15.73;;
974;SDS011;6115;49.296;10.602;2024-01-30T01:09:12;72.90;;;16.40;;
974;SDS011;6115;49.296;10.602;2024-01-30T01:14:13;71.50;;;15.33;;
974;SDS011;6115;49.296;10.602;2024-01-30T01:19:13;72.53;;;14.47;;
974;SDS011;6115;49.296;10.602;2024-01-30T01:24:14;73.40;;;16.20;;
974;SDS011;6115;49.296;10.602;2024-01-30T01:29:15;72.80;;;14.93;;
974;SDS011;6115;49.296;10.602;2024-01-30T01:34:16;70.90;;;14.23;;
974;SDS011;6115;49.296;10.602;2024-01-30T01:39:16;72.63;;;15.63;;
974;SDS011;6115;49.296;10.602;2024-01-30T01:44:17;70.27;;;14.27;;
974;SDS011;6115;49.296;10.602;2024-01-30T01:49:18;71.03;;;14.00;;
974;SDS011;6115;49.296;10.602;2024-01-30T01:54:20;72.27;;;14.23;;
974;SDS011;6115;49.296;10.602;2024-01-30T01:59:21;70.07;;;13.80;;
974;SDS011;6115;49.296;10.602;2024-01-30T02:04:23;70.10;;;13.20;;
974;SDS011;6115;49.296;10.602;2024-01-30T02:09:24;71.37;;;14.63;;
974;SDS011;6115;49.296;10.602;2024-01-30T02:14:24;71.67;;;14.43;;
974;SDS011;6115;49.296;10.602;2024-01-30T02:19:25;70.40;;;13.90;;
974;SDS011;6115;49.296;10.602;2024-01-30T02:24:25;70.13;;;13.50;;
974;SDS011;6115;49.296;10.602;2024-01-30T02:29:26;73.17;;;13.60;;
974;SDS011;6115;49.296;10.602;2024-01-30T02:34:26;71.77;;;13.47;;
974;SDS011;6115;49.296;10.602;2024-01-30T02:39:27;72.10;;;14.57;;
974;SDS011;6115;49.296;10.602;2024-01-30T02:44:27;70.77;;;13.27;;
974;SDS011;6115;49.296;10.602;2024-01-30T02:49:28;69.90;;;13.17;;
974;SDS011;6115;49.296;10.602;2024-01-30T02:54:29;70.10;;;13.23;;
974;SDS011;6115;49.296;10.602;2024-01-30T02:59:30;71.20;;;13.13;;
974;SDS011;6115;49.296;10.602;2024-01-30T03:04:33;69.70;;;12.70;;
974;SDS011;6115;49.296;10.602;2024-01-30T03:09:33;70.97;;;12.97;;
974;SDS011;6115;49.296;10.602;2024-01-30T03:14:34;71.40;;;13.30;;
974;SDS011;6115;49.296;10.602;2024-01-30T03:19:35;70.50;;;14.20;;
974;SDS011;6115;49.296;10.602;2024-01-30T03:24:35;69.50;;;12.20;;
974;SDS011;6115;49.296;10.602;2024-01-30T03:29:36;69.20;;;12.30;;
974;SDS011;6115;49.296;10.602;2024-01-30T03:34:36;69.07;;;11.67;;
974;SDS011;6115;49.296;10.602;2024-01-30T03:39:37;70.67;;;13.63;;
974;SDS011;6115;49.296;10.602;2024-01-30T03:44:37;71.27;;;13.47;;
974;SDS011;6115;49.296;10.602;2024-01-30T03:49:38;71.50;;;12.40;;
974;SDS011;6115;49.296;10.602;2024-01-30T03:54:38;71.60;;;13.17;;
974;SDS011;6115;49.296;10.602;2024-01-30T03:59:41;69.93;;;12.37;;
974;SDS011;6115;49.296;10.602;2024-01-30T04:04:42;70.20;;;12.93;;
974;SDS011;6115;49.296;10.602;2024-01-30T04:09:43;69.20;;;12.30;;
974;SDS011;6115;49.296;10.602;2024-01-30T04:14:43;68.37;;;11.20;;
974;SDS011;6115;49.296;10.602;2024-01-30T04:19:44;71.17;;;13.77;;
974;SDS011;6115;49.296;10.602;2024-01-30T04:24:44;70.47;;;13.30;;
974;SDS011;6115;49.296;10.602;2024-01-30T04:29:45;70.07;;;12.03;;
974;SDS011;6115;49.296;10.602;2024-01-30T04:34:45;69.57;;;12.40;;
974;SDS011;6115;49.296;10.602;2024-01-30T04:39:46;68.90;;;11.50;;
974;SDS011;6115;49.296;10.602;2024-01-30T04:44:46;69.00;;;11.50;;
974;SDS011;6115;49.296;10.602;2024-01-30T04:49:47;71.03;;;12.17;;
974;SDS011;6115;49.296;10.602;2024-01-30T04:54:48;69.80;;;11.90;;
974;SDS011;6115;49.296;10.602;2024-01-30T04:59:48;69.90;;;11.67;;
974;SDS011;6115;49.296;10.602;2024-01-30T05:04:49;71.03;;;11.37;;
974;SDS011;6115;49.296;10.602;2024-01-30T05:09:49;69.17;;;11.33;;
974;SDS011;6115;49.296;10.602;2024-01-30T05:14:50;70.30;;;12.60;;
974;SDS011;6115;49.296;10.602;2024-01-30T05:19:50;70.37;;;13.37;;
974;SDS011;6115;49.296;10.602;2024-01-30T05:24:51;72.50;;;13.30;;
974;SDS011;6115;49.296;10.602;2024-01-30T05:29:51;68.80;;;10.80;;
974;SDS011;6115;49.296;10.602;2024-01-30T05:34:53;71.53;;;14.03;;
974;SDS011;6115;49.296;10.602;2024-01-30T05:39:54;70.77;;;12.67;;
974;SDS011;6115;49.296;10.602;2024-01-30T05:44:55;69.93;;;12.10;;
974;SDS011;6115;49.296;10.602;2024-01-30T05:49:55;71.13;;;13.50;;
974;SDS011;6115;49.296;10.602;2024-01-30T05:54:56;69.40;;;11.90;;
974;SDS011;6115;49.296;10.602;2024-01-30T05:59:56;69.37;;;12.10;;
974;SDS011;6115;49.296;10.602;2024-01-30T06:04:58;71.67;;;13.20;;
974;SDS011;6115;49.296;10.602;2024-01-30T06:09:59;68.80;;;12.23;;
974;SDS011;6115;49.296;10.602;2024-01-30T06:15:01;69.60;;;12.60;;
974;SDS011;6115;49.296;10.602;2024-01-30T06:20:02;70.40;;;12.10;;
974;SDS011;6115;49.296;10.602;2024-01-30T06:25:04;69.57;;;12.33;;
974;SDS011;6115;49.296;10.602;2024-01-30T06:30:04;69.13;;;11.93;;
974;SDS011;6115;49.296;10.602;2024-01-30T06:35:05;69.23;;;11.77;;
974;SDS011;6115;49.296;10.602;2024-01-30T06:40:06;68.57;;;11.03;;
974;SDS011;6115;49.296;10.602;2024-01-30T06:45:08;69.60;;;12.30;;
974;SDS011;6115;49.296;10.602;2024-01-30T06:50:09;70.17;;;12.20;;
974;SDS011;6115;49.296;10.602;2024-01-30T06:55:10;69.17;;;11.43;;
974;SDS011;6115;49.296;10.602;2024-01-30T07:00:10;68.27;;;11.53;;
974;SDS011;6115;49.296;10.602;2024-01-30T07:05:11;71.33;;;14.13;;
974;SDS011;6115;49.296;10.602;2024-01-30T07:10:13;74.33;;;11.67;;
974;SDS011;6115;49.296;10.602;2024-01-30T07:15:13;69.77;;;12.40;;
974;SDS011;6115;49.296;10.602;2024-01-30T07:20:17;70.90;;;12.93;;
974;SDS011;6115;49.296;10.602;2024-01-30T07:25:20;68.50;;;12.03;;
974;SDS011;6115;49.296;10.602;2024-01-30T07:30:21;71.03;;;13.90;;
974;SDS011;6115;49.296;10.602;2024-01-30T07:35:23;69.57;;;13.67;;
974;SDS011;6115;49.296;10.602;2024-01-30T07:40:23;70.27;;;12.87;;
974;SDS011;6115;49.296;10.602;2024-01-30T07:45:24;72.63;;;15.97;;
974;SDS011;6115;49.296;10.602;2024-01-30T07:50:27;94.90;;;31.27;;
974;SDS011;6115;49.296;10.602;2024-01-30T07:55:27;100.93;;;37.23;;
974;SDS011;6115;49.296;10.602;2024-01-30T08:00:28;89.23;;;28.03;;
974;SDS011;6115;49.296;10.602;2024-01-30T08:05:29;74.67;;;19.90;;
974;SDS011;6115;49.296;10.602;2024-01-30T08:10:30;70.90;;;15.70;;
974;SDS011;6115;49.296;10.602;2024-01-30T08:15:31;71.10;;;15.10;;
974;SDS011;6115;49.296;10.602;2024-01-30T08:20:31;69.80;;;16.60;;
974;SDS011;6115;49.296;10.602;2024-01-30T08:25:32;70.53;;;15.77;;
974;SDS011;6115;49.296;10.602;2024-01-30T08:30:33;91.17;;;36.53;;
974;SDS011;6115;49.296;10.602;2024-01-30T08:35:33;93.93;;;37.07;;
974;SDS011;6115;49.296;10.602;2024-01-30T08:40:34;89.77;;;32.30;;
974;SDS011;6115;49.296;10.602;2024-01-30T08:45:35;100.47;;;32.33;;
974;SDS011;6115;49.296;10.602;2024-01-30T08:50:35;73.60;;;19.97;;
974;SDS011;6115;49.296;10.602;2024-01-30T08:55:36;68.77;;;16.00;;
974;SDS011;6115;49.296;10.602;2024-01-30T09:00:37;70.87;;;16.80;;
974;SDS011;6115;49.296;10.602;2024-01-30T09:05:37;72.67;;;17.50;;
974;SDS011;6115;49.296;10.602;2024-01-30T09:10:38;71.57;;;17.20;;
974;SDS011;6115;49.296;10.602;2024-01-30T09:15:39;94.23;;;35.10;;
974;SDS011;6115;49.296;10.602;2024-01-30T09:20:39;98.27;;;41.63;;
974;SDS011;6115;49.296;10.602;2024-01-30T09:25:40;97.13;;;37.37;;
974;SDS011;6115;49.296;10.602;2024-01-30T09:30:41;92.67;;;32.57;;
974;SDS011;6115;49.296;10.602;2024-01-30T09:35:41;79.57;;;23.50;;
974;SDS011;6115;49.296;10.602;2024-01-30T09:40:42;99.10;;;31.97;;
974;SDS011;6115;49.296;10.602;2024-01-30T09:45:43;79.67;;;22.30;;
974;SDS011;6115;49.296;10.602;2024-01-30T09:50:45;77.30;;;22.30;;
974;SDS011;6115;49.296;10.602;2024-01-30T09:55:47;80.53;;;21.53;;
974;SDS011;6115;49.296;10.602;2024-01-30T10:00:49;97.70;;;41.07;;
974;SDS011;6115;49.296;10.602;2024-01-30T10:05:53;97.37;;;35.57;;
974;SDS011;6115;49.296;10.602;2024-01-30T10:10:55;76.47;;;23.20;;
974;SDS011;6115;49.296;10.602;2024-01-30T10:15:55;74.30;;;21.40;;
974;SDS011;6115;49.296;10.602;2024-01-30T10:20:58;79.13;;;28.67;;
974;SDS011;6115;49.296;10.602;2024-01-30T10:25:59;76.07;;;22.57;;
974;SDS011;6115;49.296;10.602;2024-01-30T10:31:01;87.97;;;31.67;;
974;SDS011;6115;49.296;10.602;2024-01-30T10:36:04;91.13;;;32.20;;
974;SDS011;6115;49.296;10.602;2024-01-30T10:41:05;84.17;;;25.63;;
974;SDS011;6115;49.296;10.602;2024-01-30T10:46:15;71.30;;;14.20;;
974;SDS011;6115;49.296;10.602;2024-01-30T10:51:19;72.60;;;15.53;;
974;SDS011;6115;49.296;10.602;2024-01-30T10:56:22;94.40;;;32.47;;
974;SDS011;6115;49.296;10.602;2024-01-30T11:01:23;90.07;;;28.97;;
974;SDS011;6115;49.296;10.602;2024-01-30T11:06:25;89.43;;;24.03;;
974;SDS011;6115;49.296;10.602;2024-01-30T11:11:26;71.67;;;11.57;;
974;SDS011;6115;49.296;10.602;2024-01-30T11:16:30;68.30;;;11.77;;
974;SDS011;6115;49.296;10.602;2024-01-30T11:21:32;70.23;;;11.93;;
974;SDS011;6115;49.296;10.602;2024-01-30T11:26:32;70.67;;;11.70;;
974;SDS011;6115;49.296;10.602;2024-01-30T11:31:34;70.30;;;11.60;;
974;SDS011;6115;49.296;10.602;2024-01-30T11:36:34;69.73;;;9.77;;
974;SDS011;6115;49.296;10.602;2024-01-30T11:41:37;69.20;;;10.63;;
974;SDS011;6115;49.296;10.602;2024-01-30T11:46:39;68.40;;;10.27;;
974;SDS011;6115;49.296;10.602;2024-01-30T11:51:40;68.40;;;10.03;;
974;SDS011;6115;49.296;10.602;2024-01-30T11:56:42;72.70;;;10.30;;
974;SDS011;6115;49.296;10.602;2024-01-30T12:01:43;70.17;;;10.30;;
974;SDS011;6115;49.296;10.602;2024-01-30T12:06:43;68.40;;;10.20;;
974;SDS011;6115;49.296;10.602;2024-01-30T12:11:45;70.77;;;11.07;;
974;SDS011;6115;49.296;10.602;2024-01-30T12:16:49;68.00;;;12.10;;
974;SDS011;6115;49.296;10.602;2024-01-30T12:21:57;70.83;;;11.57;;
974;SDS011;6115;49.296;10.602;2024-01-30T12:26:59;70.50;;;11.27;;
974;SDS011;6115;49.296;10.602;2024-01-30T12:32:00;69.67;;;9.80;;
974;SDS011;6115;49.296;10.602;2024-01-30T12:37:00;67.60;;;9.20;;
974;SDS011;6115;49.296;10.602;2024-01-30T12:42:01;70.40;;;11.50;;
974;SDS011;6115;49.296;10.602;2024-01-30T12:47:03;71.00;;;10.53;;
974;SDS011;6115;49.296;10.602;2024-01-30T12:52:04;68.17;;;10.87;;
974;SDS011;6115;49.296;10.602;2024-01-30T12:57:05;67.43;;;10.90;;
974;SDS011;6115;49.296;10.602;2024-01-30T13:02:06;70.77;;;12.40;;
974;SDS011;6115;49.296;10.602;2024-01-30T13:07:07;72.20;;;11.90;;
974;SDS011;6115;49.296;10.602;2024-01-30T13:12:08;68.27;;;11.47;;
974;SDS011;6115;49.296;10.602;2024-01-30T13:17:08;75.73;;;11.83;;
974;SDS011;6115;49.296;10.602;2024-01-30T13:22:09;68.90;;;10.67;;
974;SDS011;6115;49.296;10.602;2024-01-30T13:27:09;69.13;;;11.07;;
974;SDS011;6115;49.296;10.602;2024-01-30T13:32:10;69.77;;;11.20;;
974;SDS011;6115;49.296;10.602;2024-01-30T13:37:11;68.17;;;10.80;;
974;SDS011;6115;49.296;10.602;2024-01-30T13:42:11;67.27;;;10.10;;
974;SDS011;6115;49.296;10.602;2024-01-30T13:47:12;67.60;;;11.40;;
974;SDS011;6115;49.296;10.602;2024-01-30T13:52:13;68.30;;;10.70;;
974;SDS011;6115;49.296;10.602;2024-01-30T13:57:13;65.87;;;9.10;;
974;SDS011;6115;49.296;10.602;2024-01-30T14:02:14;68.63;;;9.00;;
974;SDS011;6115;49.296;10.602;2024-01-30T14:07:14;65.63;;;9.20;;
974;SDS011;6115;49.296;10.602;2024-01-30T14:12:15;65.87;;;9.50;;
974;SDS011;6115;49.296;10.602;2024-01-30T14:17:16;67.47;;;9.77;;
974;SDS011;6115;49.296;10.602;2024-01-30T14:22:16;70.20;;;10.30;;
974;SDS011;6115;49.296;10.602;2024-01-30T14:27:17;66.60;;;10.23;;
974;SDS011;6115;49.296;10.602;2024-01-30T14:32:18;67.70;;;9.90;;
974;SDS011;6115;49.296;10.602;2024-01-30T14:37:19;68.40;;;10.07;;
974;SDS011;6115;49.296;10.602;2024-01-30T14:42:20;68.90;;;9.93;;
974;SDS011;6115;49.296;10.602;2024-01-30T14:47:21;65.47;;;8.70;;
974;SDS011;6115;49.296;10.602;2024-01-30T14:52:22;66.17;;;8.77;;
974;SDS011;6115;49.296;10.602;2024-01-30T14:57:23;66.50;;;8.47;;
974;SDS011;6115;49.296;10.602;2024-01-30T15:02:24;66.50;;;8.63;;
974;SDS011;6115;49.296;10.602;2024-01-30T15:07:25;66.37;;;9.57;;
974;SDS011;6115;49.296;10.602;2024-01-30T15:12:27;66.50;;;9.03;;
974;SDS011;6115;49.296;10.602;2024-01-30T15:17:28;67.93;;;8.87;;
974;SDS011;6115;49.296;10.602;2024-01-30T15:22:28;67.10;;;9.83;;
974;SDS011;6115;49.296;10.602;2024-01-30T15:27:29;70.90;;;10.73;;
974;SDS011;6115;49.296;10.602;2024-01-30T15:32:29;66.87;;;9.57;;
974;SDS011;6115;49.296;10.602;2024-01-30T15:37:30;68.60;;;11.90;;
974;SDS011;6115;49.296;10.602;2024-01-30T15:42:30;69.30;;;11.10;;
974;SDS011;6115;49.296;10.602;2024-01-30T15:47:31;70.70;;;12.93;;
974;SDS011;6115;49.296;10.602;2024-01-30T15:52:32;72.37;;;14.50;;
974;SDS011;6115;49.296;10.602;2024-01-30T15:57:32;74.13;;;13.73;;
974;SDS011;6115;49.296;10.602;2024-01-30T16:02:33;71.63;;;14.73;;
974;SDS011;6115;49.296;10.602;2024-01-30T16:07:37;78.00;;;16.60;;
974;SDS011;6115;49.296;10.602;2024-01-30T16:12:38;82.67;;;17.43;;
974;SDS011;6115;49.296;10.602;2024-01-30T16:17:42;78.47;;;16.40;;
974;SDS011;6115;49.296;10.602;2024-01-30T16:22:42;73.40;;;12.97;;
974;SDS011;6115;49.296;10.602;2024-01-30T16:27:43;74.83;;;13.60;;
974;SDS011;6115;49.296;10.602;2024-01-30T16:32:44;74.27;;;12.63;;
974;SDS011;6115;49.296;10.602;2024-01-30T16:37:45;77.40;;;13.80;;
974;SDS011;6115;49.296;10.602;2024-01-30T16:42:45;72.07;;;12.10;;
974;SDS011;6115;49.296;10.602;2024-01-30T16:47:46;71.27;;;11.63;;
974;SDS011;6115;49.296;10.602;2024-01-30T16:52:46;76.47;;;11.80;;
974;SDS011;6115;49.296;10.602;2024-01-30T16:57:47;72.13;;;12.90;;
974;SDS011;6115;49.296;10.602;2024-01-30T17:02:48;69.50;;;10.47;;
974;SDS011;6115;49.296;10.602;2024-01-30T17:07:55;77.27;;;13.50;;
974;SDS011;6115;49.296;10.602;2024-01-30T17:12:58;75.77;;;15.97;;
974;SDS011;6115;49.296;10.602;2024-01-30T17:17:59;83.07;;;16.40;;
974;SDS011;6115;49.296;10.602;2024-01-30T17:23:00;72.70;;;15.50;;
974;SDS011;6115;49.296;10.602;2024-01-30T17:28:00;72.87;;;15.37;;
974;SDS011;6115;49.296;10.602;2024-01-30T17:33:01;74.47;;;15.10;;
974;SDS011;6115;49.296;10.602;2024-01-30T17:38:02;73.37;;;14.90;;
974;SDS011;6115;49.296;10.602;2024-01-30T17:43:02;76.50;;;16.07;;
974;SDS011;6115;49.296;10.602;2024-01-30T17:48:03;77.17;;;17.83;;
974;SDS011;6115;49.296;10.602;2024-01-30T17:53:07;75.30;;;17.10;;
974;SDS011;6115;49.296;10.602;2024-01-30T17:58:07;76.10;;;16.60;;
974;SDS011;6115;49.296;10.602;2024-01-30T18:03:08;76.10;;;16.37;;
974;SDS011;6115;49.296;10.602;2024-01-30T18:08:09;74.47;;;16.97;;
974;SDS011;6115;49.296;10.602;2024-01-30T18:13:09;75.23;;;15.93;;
974;SDS011;6115;49.296;10.602;2024-01-30T18:18:13;73.87;;;15.90;;
974;SDS011;6115;49.296;10.602;2024-01-30T18:23:13;72.73;;;16.00;;
974;SDS011;6115;49.296;10.602;2024-01-30T18:28:15;75.70;;;16.80;;
974;SDS011;6115;49.296;10.602;2024-01-30T18:33:15;78.13;;;19.17;;
974;SDS011;6115;49.296;10.602;2024-01-30T18:38:16;78.57;;;18.67;;
974;SDS011;6115;49.296;10.602;2024-01-30T18:43:16;76.10;;;18.20;;
974;SDS011;6115;49.296;10.602;2024-01-30T18:48:17;76.40;;;18.00;;
974;SDS011;6115;49.296;10.602;2024-01-30T18:53:18;77.30;;;18.13;;
974;SDS011;6115;49.296;10.602;2024-01-30T18:58:18;74.80;;;17.03;;
974;SDS011;6115;49.296;10.602;2024-01-30T19:03:19;80.87;;;18.40;;
974;SDS011;6115;49.296;10.602;2024-01-30T19:08:20;77.23;;;18.70;;
974;SDS011;6115;49.296;10.602;2024-01-30T19:13:21;79.73;;;17.70;;
974;SDS011;6115;49.296;10.602;2024-01-30T19:18:22;79.27;;;18.30;;
974;SDS011;6115;49.296;10.602;2024-01-30T19:23:23;77.93;;;15.70;;
974;SDS011;6115;49.296;10.602;2024-01-30T19:28:24;75.87;;;17.17;;
974;SDS011;6115;49.296;10.602;2024-01-30T19:33:25;75.77;;;16.80;;
974;SDS011;6115;49.296;10.602;2024-01-30T19:38:25;76.20;;;17.70;;
974;SDS011;6115;49.296;10.602;2024-01-30T19:43:26;81.50;;;16.97;;
974;SDS011;6115;49.296;10.602;2024-01-30T19:48:27;76.30;;;17.57;;
974;SDS011;6115;49.296;10.602;2024-01-30T19:53:28;90.53;;;20.07;;
974;SDS011;6115;49.296;10.602;2024-01-30T19:58:28;77.40;;;18.03;;
974;SDS011;6115;49.296;10.602;2024-01-30T20:03:29;76.70;;;17.83;;
974;SDS011;6115;49.296;10.602;2024-01-30T20:08:29;77.00;;;18.63;;
974;SDS011;6115;49.296;10.602;2024-01-30T20:13:33;76.00;;;18.50;;
974;SDS011;6115;49.296;10.602;2024-01-30T20:18:35;79.80;;;21.03;;
974;SDS011;6115;49.296;10.602;2024-01-30T20:23:36;79.13;;;21.30;;
974;SDS011;6115;49.296;10.602;2024-01-30T20:28:38;82.00;;;19.07;;
974;SDS011;6115;49.296;10.602;2024-01-30T20:33:39;79.87;;;18.80;;
974;SDS011;6115;49.296;10.602;2024-01-30T20:38:39;77.50;;;18.10;;
974;SDS011;6115;49.296;10.602;2024-01-30T20:43:40;74.30;;;16.60;;
974;SDS011;6115;49.296;10.602;2024-01-30T20:48:41;78.97;;;17.63;;
974;SDS011;6115;49.296;10.602;2024-01-30T20:53:44;79.00;;;17.80;;
974;SDS011;6115;49.296;10.602;2024-01-30T20:58:45;73.20;;;15.30;;
974;SDS011;6115;49.296;10.602;2024-01-30T21:03:46;76.27;;;15.77;;
974;SDS011;6115;49.296;10.602;2024-01-30T21:08:47;72.53;;;14.57;;
974;SDS011;6115;49.296;10.602;2024-01-30T21:13:48;72.17;;;15.97;;
974;SDS011;6115;49.296;10.602;2024-01-30T21:18:49;76.37;;;16.03;;
974;SDS011;6115;49.296;10.602;2024-01-30T21:23:49;72.30;;;15.10;;
974;SDS011;6115;49.296;10.602;2024-01-30T21:28:50;75.87;;;19.37;;
974;SDS011;6115;49.296;10.602;2024-01-30T21:33:51;81.33;;;19.60;;
974;SDS011;6115;49.296;10.602;2024-01-30T21:38:52;78.73;;;19.13;;
974;SDS011;6115;49.296;10.602;2024-01-30T21:43:53;85.53;;;22.73;;
974;SDS011;6115;49.296;10.602;2024-01-30T21:48:53;80.20;;;18.40;;
974;SDS011;6115;49.296;10.602;2024-01-30T21:53:54;75.37;;;17.97;;
974;SDS011;6115;49.296;10.602;2024-01-30T21:58:54;75.03;;;17.67;;
974;SDS011;6115;49.296;10.602;2024-01-30T22:03:55;81.00;;;19.87;;
974;SDS011;6115;49.296;10.602;2024-01-30T22:08:56;79.47;;;19.30;;
974;SDS011;6115;49.296;10.602;2024-01-30T22:13:56;73.67;;;17.77;;
974;SDS011;6115;49.296;10.602;2024-01-30T22:18:57;76.87;;;16.27;;
974;SDS011;6115;49.296;10.602;2024-01-30T22:23:57;75.07;;;15.60;;
974;SDS011;6115;49.296;10.602;2024-01-30T22:28:58;77.73;;;16.13;;
974;SDS011;6115;49.296;10.602;2024-01-30T22:33:59;72.30;;;14.43;;
974;SDS011;6115;49.296;10.602;2024-01-30T22:39:03;75.93;;;17.73;;
974;SDS011;6115;49.296;10.602;2024-01-30T22:44:08;72.20;;;16.27;;
974;SDS011;6115;49.296;10.602;2024-01-30T22:49:09;74.67;;;17.30;;
974;SDS011;6115;49.296;10.602;2024-01-30T22:54:10;76.13;;;18.10;;
974;SDS011;6115;49.296;10.602;2024-01-30T22:59:10;76.30;;;18.47;;
974;SDS011;6115;49.296;10.602;2024-01-30T23:04:11;74.17;;;17.20;;
974;SDS011;6115;49.296;10.602;2024-01-30T23:09:11;74.20;;;17.50;;
974;SDS011;6115;49.296;10.602;2024-01-30T23:14:14;73.87;;;17.27;;
974;SDS011;6115;49.296;10.602;2024-01-30T23:19:14;71.30;;;17.00;;
974;SDS011;6115;49.296;10.602;2024-01-30T23:24:16;71.40;;;16.03;;
974;SDS011;6115;49.296;10.602;2024-01-30T23:29:16;71.27;;;16.07;;
974;SDS011;6115;49.296;10.602;2024-01-30T23:34:17;71.53;;;17.07;;
974;SDS011;6115;49.296;10.602;2024-01-30T23:39:18;72.90;;;16.83;;
974;SDS011;6115;49.296;10.602;2024-01-30T23:44:18;72.00;;;16.87;;
974;SDS011;6115;49.296;10.602;2024-01-30T23:49:19;74.67;;;17.20;;
974;SDS011;6115;49.296;10.602;2024-01-30T23:54:20;74.67;;;16.60;;
974;SDS011;6115;49.296;10.602;2024-01-30T23:59:20;83.40;;;17.80;;
